Time;durP1;ratioP1;P1;durP2;ratioP2;P2;SDS_P1;SDS_P2;PMS_P1;PMS_P2;Temp;Humidity;BMP_temperature;BMP_pressure;BME280_temperature;BME280_humidity;BME280_pressure;Samples;Min_cycle;Max_cycle;Signal;HPM_P1;HPM_P2
2022/08/25 00:02:00;;;;;;;6.70;2.72;;;26.50;67.40;;;;;;5035628;28;20037;-71
2022/08/25 00:04:28;;;;;;;6.00;2.72;;;26.50;67.30;;;;;;5035464;28;20029;-69
2022/08/25 00:06:54;;;;;;;8.43;2.97;;;26.40;67.10;;;;;;5035412;28;20390;-70
2022/08/25 00:09:23;;;;;;;9.77;2.92;;;26.40;67.30;;;;;;5035398;28;20444;-72
2022/08/25 00:11:50;;;;;;;6.75;2.85;;;26.40;67.10;;;;;;5035280;28;20025;-70
2022/08/25 00:14:22;;;;;;;9.45;3.28;;;26.30;67.00;;;;;;5035083;28;20075;-70
2022/08/25 00:16:48;;;;;;;7.25;2.80;;;26.30;68.00;;;;;;5035321;28;20102;-70
2022/08/25 00:19:19;;;;;;;5.50;2.50;;;26.30;67.00;;;;;;5035221;28;20108;-69
2022/08/25 00:21:46;;;;;;;6.97;2.92;;;26.20;67.10;;;;;;5017508;28;20028;-71
2022/08/25 00:24:14;;;;;;;5.35;2.85;;;26.20;67.00;;;;;;5035182;28;20029;-69
2022/08/25 00:26:42;;;;;;;6.65;3.10;;;26.30;67.00;;;;;;5035084;28;20481;-70
2022/08/25 00:29:09;;;;;;;5.75;3.20;;;26.30;66.70;;;;;;5034916;28;20047;-69
2022/08/25 00:31:35;;;;;;;10.50;3.17;;;26.30;66.50;;;;;;5035067;28;20025;-71
2022/08/25 00:34:02;;;;;;;7.13;2.80;;;26.30;66.50;;;;;;5034940;28;20018;-69
2022/08/25 00:36:28;;;;;;;9.93;2.60;;;26.30;67.10;;;;;;5035198;28;20093;-69
2022/08/25 00:38:54;;;;;;;6.45;2.83;;;26.30;66.30;;;;;;5035069;28;20390;-70
2022/08/25 00:41:22;;;;;;;8.23;2.78;;;26.20;66.40;;;;;;5035012;28;20109;-70
2022/08/25 00:43:55;;;;;;;5.88;2.58;;;26.20;66.30;;;;;;5016952;28;20024;-70
2022/08/25 00:46:26;;;;;;;6.25;2.85;;;26.20;66.40;;;;;;5033889;28;20143;-70
2022/08/25 00:49:24;;;;;;;6.75;2.50;;;26.10;66.20;;;;;;5035085;28;20018;-69
2022/08/25 00:52:02;;;;;;;6.35;2.42;;;26.10;66.30;;;;;;5019856;28;20052;-70
2022/08/25 00:54:39;;;;;;;6.38;2.65;;;26.10;65.90;;;;;;5034532;28;20049;-70
2022/08/25 00:57:08;;;;;;;6.85;2.38;;;26.10;65.90;;;;;;5034584;28;20029;-71
2022/08/25 00:59:34;;;;;;;6.50;2.50;;;26.10;65.30;;;;;;5016832;28;20033;-70
2022/08/25 01:02:01;;;;;;;4.60;2.10;;;26.10;65.00;;;;;;5034330;28;20601;-71
2022/08/25 01:04:27;;;;;;;5.60;2.55;;;26.10;64.60;;;;;;5034616;28;20037;-70
2022/08/25 01:06:54;;;;;;;5.55;2.20;;;26.10;64.30;;;;;;5034575;28;20027;-70
2022/08/25 01:09:20;;;;;;;4.88;1.83;;;26.10;63.90;;;;;;5033991;28;20521;-71
2022/08/25 01:11:47;;;;;;;5.75;1.80;;;26.00;63.40;;;;;;5034426;28;20033;-70
2022/08/25 01:14:17;;;;;;;4.93;1.88;;;25.90;62.90;;;;;;5034175;28;20485;-69
2022/08/25 01:16:43;;;;;;;3.45;1.80;;;25.90;62.80;;;;;;5034261;28;20022;-70
2022/08/25 01:19:12;;;;;;;5.32;2.08;;;25.90;62.50;;;;;;5034072;28;20021;-70
2022/08/25 01:21:42;;;;;;;3.58;1.60;;;25.90;62.60;;;;;;5034121;28;20024;-70
2022/08/25 01:24:12;;;;;;;4.15;1.80;;;25.90;62.60;;;;;;5033982;28;20029;-69
2022/08/25 01:26:38;;;;;;;3.63;2.05;;;25.90;62.40;;;;;;5034046;28;20033;-71
2022/08/25 01:29:20;;;;;;;4.32;1.83;;;26.00;62.20;;;;;;5034013;28;20386;-70
2022/08/25 01:31:56;;;;;;;6.47;1.85;;;25.90;62.10;;;;;;5034001;28;20080;-71
2022/08/25 01:34:24;;;;;;;5.00;1.90;;;25.90;62.70;;;;;;5033940;28;20053;-69
2022/08/25 01:36:51;;;;;;;3.05;1.58;;;25.80;63.10;;;;;;5016680;28;20476;-71
2022/08/25 01:39:17;;;;;;;3.40;1.40;;;25.80;62.40;;;;;;5034074;28;20033;-71
2022/08/25 01:42:04;;;;;;;4.18;1.80;;;25.70;62.20;;;;;;5033672;28;20350;-71
2022/08/25 01:44:32;;;;;;;3.40;1.60;;;25.60;62.30;;;;;;5033607;28;20025;-70
2022/08/25 01:46:58;;;;;;;3.95;1.50;;;25.60;61.70;;;;;;5015803;28;20025;-70
2022/08/25 01:49:23;;;;;;;3.78;1.63;;;25.60;61.80;;;;;;5033494;28;20045;-70
2022/08/25 01:51:58;;;;;;;3.92;1.50;;;25.60;61.80;;;;;;5033581;28;20030;-71
2022/08/25 01:54:24;;;;;;;5.05;1.67;;;25.50;61.50;;;;;;5033523;28;20083;-70
2022/08/25 01:56:50;;;;;;;4.95;1.73;;;25.50;61.50;;;;;;5033248;28;20355;-69
2022/08/25 01:59:20;;;;;;;5.00;1.70;;;25.60;62.40;;;;;;5033447;28;20029;-70
2022/08/25 02:01:46;;;;;;;5.60;1.80;;;25.50;61.80;;;;;;5033523;28;20450;-72
2022/08/25 02:04:12;;;;;;;3.05;1.55;;;25.50;61.70;;;;;;5033285;28;20025;-70
2022/08/25 02:06:38;;;;;;;8.07;1.90;;;25.50;62.10;;;;;;5033337;28;20075;-71
2022/08/25 02:09:14;;;;;;;4.22;1.67;;;25.50;62.50;;;;;;5033155;28;20453;-69
2022/08/25 02:11:41;;;;;;;2.58;1.65;;;25.50;63.60;;;;;;5033339;28;20022;-70
2022/08/25 02:14:10;;;;;;;4.57;1.92;;;25.50;62.40;;;;;;5033042;28;20096;-71
2022/08/25 02:16:37;;;;;;;4.85;1.65;;;25.50;62.60;;;;;;5033171;28;20545;-70
2022/08/25 02:19:05;;;;;;;3.95;1.73;;;25.50;62.80;;;;;;5033287;28;20017;-69
2022/08/25 02:21:32;;;;;;;5.53;2.00;;;25.50;62.90;;;;;;5032996;28;20494;-71
2022/08/25 02:23:58;;;;;;;4.10;1.90;;;25.50;63.00;;;;;;5033073;28;20030;-71
2022/08/25 02:26:24;;;;;;;5.03;2.05;;;25.50;63.20;;;;;;5033232;28;20486;-69
2022/08/25 02:28:51;;;;;;;6.88;1.98;;;25.40;63.30;;;;;;5033110;28;20018;-71
2022/08/25 02:31:20;;;;;;;4.60;1.80;;;25.30;63.40;;;;;;5033254;28;20356;-71
2022/08/25 02:33:45;;;;;;;5.20;1.90;;;25.30;63.60;;;;;;5033356;28;20033;-70
2022/08/25 02:36:11;;;;;;;4.47;2.17;;;25.30;63.90;;;;;;5032914;28;20429;-70
2022/08/25 02:38:38;;;;;;;4.18;2.10;;;25.20;64.10;;;;;;5032767;28;20097;-70
2022/08/25 02:41:14;;;;;;;3.90;2.05;;;25.20;64.40;;;;;;5032931;28;20017;-70
2022/08/25 02:43:41;;;;;;;6.78;1.90;;;25.20;64.70;;;;;;5032740;28;20021;-70
2022/08/25 02:46:08;;;;;;;6.32;1.98;;;25.10;64.60;;;;;;5032852;28;20080;-70
2022/08/25 02:48:34;;;;;;;5.95;2.22;;;25.10;64.90;;;;;;5032749;28;20025;-71
2022/08/25 02:51:01;;;;;;;4.80;2.13;;;25.10;65.00;;;;;;5032500;28;20041;-70
2022/08/25 02:53:28;;;;;;;4.80;2.20;;;25.10;64.80;;;;;;5032607;28;20048;-69
2022/08/25 02:55:54;;;;;;;5.05;2.00;;;25.00;64.70;;;;;;5032719;28;20029;-69
2022/08/25 02:58:20;;;;;;;3.33;1.90;;;25.00;64.90;;;;;;5032878;28;20102;-69
2022/08/25 03:00:47;;;;;;;6.15;2.20;;;25.00;64.90;;;;;;5015052;28;20066;-70
2022/08/25 03:03:14;;;;;;;5.30;1.63;;;25.00;65.00;;;;;;5032474;28;20014;-70
2022/08/25 03:05:40;;;;;;;5.07;1.88;;;25.00;65.00;;;;;;5032487;28;20029;-70
2022/08/25 03:08:06;;;;;;;7.38;2.40;;;25.00;64.40;;;;;;5032297;28;20060;-69
2022/08/25 03:10:32;;;;;;;4.43;2.00;;;25.00;64.70;;;;;;5036076;28;20037;-70
2022/08/25 03:12:58;;;;;;;5.32;1.92;;;24.90;64.50;;;;;;5036944;28;20014;-70
2022/08/25 03:15:26;;;;;;;2.85;1.70;;;25.00;64.40;;;;;;5036759;28;20409;-70
2022/08/25 03:17:53;;;;;;;5.30;2.08;;;25.00;64.50;;;;;;5036764;28;20337;-70
2022/08/25 03:20:19;;;;;;;5.88;2.10;;;24.90;64.30;;;;;;5037062;28;20029;-71
2022/08/25 03:22:45;;;;;;;6.88;2.00;;;24.90;64.20;;;;;;5037172;28;20025;-70
2022/08/25 03:28:05;;;;;;;4.35;1.63;;;24.80;63.60;;;;;;5020575;28;20052;-71
2022/08/25 03:30:31;;;;;;;3.08;1.80;;;24.80;63.60;;;;;;5036412;28;20480;-69
2022/08/25 03:32:56;;;;;;;5.30;1.98;;;24.70;63.70;;;;;;5036393;28;20068;-71
2022/08/25 03:35:22;;;;;;;4.90;1.83;;;24.70;63.60;;;;;;5036592;28;20033;-70
2022/08/25 03:37:49;;;;;;;4.22;1.77;;;24.70;63.70;;;;;;5036174;28;20022;-70
2022/08/25 03:40:16;;;;;;;3.65;1.70;;;24.60;63.80;;;;;;5036531;28;20029;-69
2022/08/25 03:42:44;;;;;;;4.20;1.50;;;24.50;63.70;;;;;;5036309;28;20029;-71
2022/08/25 03:45:12;;;;;;;3.10;1.55;;;24.50;63.70;;;;;;5035883;28;20083;-71
2022/08/25 03:47:39;;;;;;;4.80;1.60;;;24.50;63.50;;;;;;5018150;28;20017;-70
2022/08/25 03:50:07;;;;;;;4.32;2.03;;;24.50;63.30;;;;;;5035914;28;20034;-70
2022/08/25 03:52:33;;;;;;;6.63;1.92;;;24.50;63.50;;;;;;5035951;28;20033;-70
2022/08/25 03:54:59;;;;;;;4.57;2.00;;;24.50;63.20;;;;;;5035746;28;20126;-71
2022/08/25 03:57:25;;;;;;;3.92;1.70;;;24.50;63.30;;;;;;5035776;28;20481;-69
2022/08/25 03:59:51;;;;;;;4.10;1.67;;;24.50;63.50;;;;;;5035636;28;20021;-69
2022/08/25 04:02:17;;;;;;;4.72;1.77;;;24.50;63.30;;;;;;5035734;28;20489;-71
2022/08/25 04:04:43;;;;;;;4.35;1.90;;;24.50;63.60;;;;;;5035669;28;20017;-70
2022/08/25 04:07:09;;;;;;;3.05;1.77;;;24.50;63.40;;;;;;5035381;28;20075;-70
2022/08/25 04:09:34;;;;;;;3.95;1.88;;;24.50;63.50;;;;;;5035337;28;20030;-71
2022/08/25 04:12:00;;;;;;;6.82;1.85;;;24.50;63.30;;;;;;5035377;28;20382;-70
2022/08/25 04:14:26;;;;;;;6.43;2.17;;;24.40;63.40;;;;;;5035395;28;20099;-70
2022/08/25 04:17:01;;;;;;;4.80;2.20;;;24.40;63.60;;;;;;5035235;28;20478;-70
2022/08/25 04:19:26;;;;;;;4.03;1.98;;;24.40;63.60;;;;;;5035323;28;20025;-70
2022/08/25 04:21:53;;;;;;;4.93;2.00;;;24.40;63.70;;;;;;5017963;28;20063;-69
2022/08/25 04:24:20;;;;;;;3.22;1.90;;;24.30;63.30;;;;;;5035898;28;20044;-71
2022/08/25 04:26:48;;;;;;;4.93;1.60;;;24.30;63.60;;;;;;5035688;28;20029;-70
2022/08/25 04:29:16;;;;;;;3.80;2.00;;;24.30;63.90;;;;;;5034951;28;20025;-70
2022/08/25 04:31:45;;;;;;;4.88;1.88;;;24.30;63.80;;;;;;5035282;28;20029;-69
2022/08/25 04:34:12;;;;;;;3.33;1.85;;;24.20;63.90;;;;;;5017155;28;20072;-70
2022/08/25 04:36:38;;;;;;;3.65;1.60;;;24.30;63.90;;;;;;5034980;28;20049;-71
2022/08/25 04:39:04;;;;;;;3.80;1.80;;;24.30;64.10;;;;;;5035095;28;20456;-71
2022/08/25 04:41:30;;;;;;;5.68;1.67;;;24.20;64.00;;;;;;5034937;28;20021;-70
2022/08/25 04:43:58;;;;;;;4.38;1.90;;;24.20;64.10;;;;;;5034904;28;20018;-70
2022/08/25 04:46:29;;;;;;;4.00;2.00;;;24.20;64.00;;;;;;5035160;28;20486;-70
2022/08/25 04:48:58;;;;;;;9.40;2.33;;;24.30;64.10;;;;;;5035080;28;20022;-71
2022/08/25 04:51:30;;;;;;;4.00;1.70;;;24.30;64.10;;;;;;5034934;28;20131;-70
2022/08/25 04:54:00;;;;;;;3.83;2.03;;;24.30;63.90;;;;;;5034872;28;20025;-70
2022/08/25 04:56:26;;;;;;;6.40;2.22;;;24.20;64.20;;;;;;5034939;28;20022;-70
2022/08/25 04:58:53;;;;;;;6.50;2.08;;;24.20;64.00;;;;;;5034677;28;20029;-71
2022/08/25 05:01:21;;;;;;;4.40;1.77;;;24.20;64.10;;;;;;5034645;28;20105;-70
2022/08/25 05:03:56;;;;;;;6.60;2.30;;;24.20;64.20;;;;;;5035094;28;20071;-71
2022/08/25 05:06:22;;;;;;;3.75;1.88;;;24.20;64.10;;;;;;5034619;28;20018;-69
2022/08/25 05:08:48;;;;;;;5.95;2.05;;;24.20;64.10;;;;;;5034197;28;20160;-70
2022/08/25 05:11:16;;;;;;;5.47;2.10;;;24.20;64.20;;;;;;5034152;28;20493;-70
2022/08/25 05:13:44;;;;;;;4.28;2.20;;;24.20;64.30;;;;;;5034132;28;20101;-70
2022/08/25 05:16:09;;;;;;;5.03;2.10;;;24.20;64.30;;;;;;5034428;28;20079;-70
2022/08/25 05:18:35;;;;;;;6.90;2.28;;;24.30;64.40;;;;;;5034226;28;20013;-70
2022/08/25 05:21:07;;;;;;;4.70;2.35;;;24.30;64.30;;;;;;5034197;28;20099;-70
2022/08/25 05:23:33;;;;;;;7.28;2.63;;;24.30;64.20;;;;;;5033882;28;20109;-70
2022/08/25 05:26:20;;;;;;;4.93;2.20;;;24.30;64.20;;;;;;5033991;28;20378;-70
2022/08/25 05:28:50;;;;;;;3.80;2.03;;;24.30;63.90;;;;;;5015977;28;20535;-70
2022/08/25 05:31:17;;;;;;;7.15;2.42;;;24.30;63.90;;;;;;5033850;28;20029;-70
2022/08/25 05:33:43;;;;;;;5.63;2.35;;;24.30;63.90;;;;;;5033470;28;20029;-70
2022/08/25 05:36:11;;;;;;;3.58;1.98;;;24.30;63.70;;;;;;5033798;28;20497;-69
2022/08/25 05:38:38;;;;;;;6.03;2.22;;;24.30;63.80;;;;;;5033614;28;20457;-70
2022/08/25 05:41:09;;;;;;;3.97;2.10;;;24.40;63.70;;;;;;5015801;28;20359;-70
2022/08/25 05:43:36;;;;;;;9.60;2.58;;;24.50;63.60;;;;;;5033583;28;20041;-70
2022/08/25 05:46:02;;;;;;;8.52;1.90;;;24.60;63.30;;;;;;5033742;28;20048;-69
2022/08/25 05:48:28;;;;;;;4.25;1.98;;;24.70;63.30;;;;;;5033968;28;20037;-70
2022/08/25 05:50:57;;;;;;;6.38;2.15;;;24.90;63.10;;;;;;5033132;28;20030;-71
2022/08/25 05:53:24;;;;;;;5.25;2.40;;;25.20;62.40;;;;;;5015484;28;20030;-70
2022/08/25 05:55:51;;;;;;;4.35;1.90;;;25.40;61.90;;;;;;5033464;28;20022;-71
2022/08/25 06:04:23;;;;;;;6.70;1.92;;;26.30;59.80;;;;;;5014080;28;20501;-71
2022/08/25 06:06:52;;;;;;;4.85;2.03;;;26.70;59.00;;;;;;5013841;28;20014;-72
2022/08/25 06:09:18;;;;;;;3.80;1.98;;;26.80;58.20;;;;;;5031919;28;20406;-69
2022/08/25 06:11:44;;;;;;;5.65;2.00;;;27.00;58.00;;;;;;5033363;28;20034;-70
2022/08/25 06:14:10;;;;;;;4.55;2.30;;;27.20;57.50;;;;;;5041649;28;20021;-71
2022/08/25 06:16:37;;;;;;;4.78;1.98;;;27.40;56.80;;;;;;5023992;28;20026;-72
2022/08/25 06:19:03;;;;;;;6.22;1.90;;;27.70;56.40;;;;;;5015654;28;20076;-71
2022/08/25 06:21:29;;;;;;;6.82;2.25;;;27.90;55.90;;;;;;5035780;28;20493;-70
2022/08/25 06:23:55;;;;;;;6.70;2.10;;;28.00;55.20;;;;;;5036025;28;20100;-70
2022/08/25 06:26:22;;;;;;;6.43;2.30;;;28.20;55.00;;;;;;5033699;28;20025;-70
2022/08/25 06:28:49;;;;;;;4.68;1.90;;;28.20;54.80;;;;;;5033322;28;20025;-70
2022/08/25 06:31:15;;;;;;;9.82;2.80;;;28.30;54.80;;;;;;5033210;28;20038;-72
2022/08/25 06:33:42;;;;;;;11.13;2.70;;;28.50;54.20;;;;;;5042892;28;20470;-70
2022/08/25 06:36:49;;;;;;;8.25;2.42;;;28.70;54.80;;;;;;5050045;28;20056;-70
2022/08/25 06:39:15;;;;;;;5.80;2.20;;;28.80;52.50;;;;;;5051739;28;20032;-72
2022/08/25 06:41:41;;;;;;;8.52;2.28;;;28.90;53.60;;;;;;5053033;28;20533;-69
2022/08/25 06:44:07;;;;;;;6.50;2.03;;;29.00;53.00;;;;;;5051940;28;20120;-70
2022/08/25 06:46:33;;;;;;;7.18;2.30;;;29.20;52.70;;;;;;5052776;28;20096;-70
2022/08/25 06:48:59;;;;;;;6.75;2.78;;;29.30;52.40;;;;;;5052523;28;20107;-68
2022/08/25 06:51:26;;;;;;;5.05;2.13;;;29.40;52.20;;;;;;5052393;28;20029;-69
2022/08/25 06:53:53;;;;;;;5.80;2.47;;;29.40;52.00;;;;;;5052252;28;20018;-70
2022/08/25 06:56:20;;;;;;;6.78;2.50;;;29.60;52.20;;;;;;5052774;28;20053;-70
2022/08/25 06:58:48;;;;;;;7.47;2.35;;;29.70;52.20;;;;;;5052559;28;20363;-69
2022/08/25 07:01:15;;;;;;;7.28;2.25;;;29.80;51.70;;;;;;5052412;28;20072;-69
2022/08/25 07:03:41;;;;;;;6.47;2.42;;;29.60;51.90;;;;;;5052434;28;20041;-71
2022/08/25 07:06:08;;;;;;;5.03;2.35;;;29.70;52.00;;;;;;5052251;28;20021;-71
2022/08/25 07:08:35;;;;;;;6.13;2.00;;;29.70;51.70;;;;;;5034588;28;20049;-69
2022/08/25 07:11:09;;;;;;;6.55;2.30;;;29.70;51.60;;;;;;5052529;28;20497;-70
2022/08/25 07:13:35;;;;;;;;;;;29.70;51.60;;;;;;5052604;28;20120;-72
2022/08/25 07:16:01;;;;;;;9.68;3.10;;;29.70;51.00;;;;;;5034164;28;19905;-72
2022/08/25 07:18:28;;;;;;;9.70;2.47;;;29.90;51.60;;;;;;5052380;28;20017;-72
2022/08/25 07:20:55;;;;;;;9.77;2.47;;;30.00;51.20;;;;;;5034168;28;20086;-74
2022/08/25 07:23:21;;;;;;;4.80;2.15;;;30.10;51.20;;;;;;5052451;28;20097;-70
2022/08/25 07:25:47;;;;;;;5.45;2.45;;;30.20;51.00;;;;;;5052309;28;20033;-71
2022/08/25 07:28:16;;;;;;;8.27;2.47;;;30.20;50.70;;;;;;5052546;28;20496;-75
2022/08/25 07:30:42;;;;;;;6.07;2.20;;;30.30;50.50;;;;;;5051921;28;20067;-74
2022/08/25 07:33:08;;;;;;;12.43;4.05;;;30.40;50.80;;;;;;5051772;28;20025;-71
2022/08/25 07:35:35;;;;;;;9.55;2.85;;;30.40;50.30;;;;;;5034217;28;20027;-75
2022/08/25 07:38:03;;;;;;;10.98;3.30;;;30.60;50.30;;;;;;5052347;28;20029;-72
2022/08/25 07:40:32;;;;;;;8.57;3.50;;;30.70;50.30;;;;;;5051962;28;20032;-73
2022/08/25 07:43:00;;;;;;;7.45;3.00;;;30.70;50.50;;;;;;5051601;28;20065;-70
2022/08/25 07:45:29;;;;;;;9.90;2.40;;;30.80;50.30;;;;;;5051647;28;20442;-70
2022/08/25 07:47:58;;;;;;;6.25;2.47;;;30.80;50.80;;;;;;5051902;28;20489;-71
2022/08/25 07:50:24;;;;;;;8.57;2.28;;;30.70;49.70;;;;;;5051983;28;20553;-69
2022/08/25 07:52:50;;;;;;;5.07;2.40;;;30.60;50.00;;;;;;5051909;28;20029;-70
2022/08/25 07:55:16;;;;;;;5.13;2.33;;;30.40;49.90;;;;;;5034826;28;20105;-72
2022/08/25 07:57:42;;;;;;;8.10;2.78;;;30.50;49.70;;;;;;5055667;28;20075;-69
2022/08/25 08:00:10;;;;;;;5.40;2.53;;;30.50;50.00;;;;;;5055273;28;20028;-70
2022/08/25 08:02:40;;;;;;;6.38;2.00;;;30.40;49.50;;;;;;5055459;28;20163;-72
2022/08/25 08:05:07;;;;;;;6.75;2.35;;;30.30;50.10;;;;;;5055273;28;20021;-71
2022/08/25 08:07:33;;;;;;;6.43;2.50;;;30.30;50.00;;;;;;5055531;28;20394;-72
2022/08/25 08:10:00;;;;;;;6.38;2.30;;;30.20;50.20;;;;;;5037160;28;20032;-70
2022/08/25 08:12:26;;;;;;;4.88;2.03;;;30.10;50.40;;;;;;5055030;28;20108;-72
2022/08/25 08:14:52;;;;;;;7.78;2.83;;;30.00;51.00;;;;;;5055047;28;20064;-73
2022/08/25 08:17:19;;;;;;;10.27;2.65;;;30.00;50.50;;;;;;5055183;28;20370;-70
2022/08/25 08:19:45;;;;;;;5.13;2.10;;;29.90;51.10;;;;;;5037077;28;20440;-70
2022/08/25 08:22:15;;;;;;;11.15;2.30;;;29.90;51.10;;;;;;5055172;28;20059;-71
2022/08/25 08:24:43;;;;;;;10.77;2.78;;;29.80;50.90;;;;;;5054861;28;20488;-70
2022/08/25 08:27:10;;;;;;;8.52;2.33;;;29.70;51.00;;;;;;5055067;28;20045;-71
2022/08/25 08:29:38;;;;;;;9.60;2.05;;;29.70;51.20;;;;;;5055075;28;20162;-72
2022/08/25 08:32:06;;;;;;;5.32;2.10;;;29.50;51.40;;;;;;5055144;28;20442;-73
2022/08/25 08:34:33;;;;;;;6.75;4.38;;;29.50;51.30;;;;;;5055124;28;20017;-78
2022/08/25 08:36:59;;;;;;;8.43;3.58;;;29.50;51.50;;;;;;5055328;28;20021;-75
2022/08/25 08:39:27;;;;;;;6.00;2.70;;;29.40;51.40;;;;;;5055174;28;20021;-75
2022/08/25 08:42:29;;;;;;;9.13;2.35;;;29.40;51.50;;;;;;5055001;28;20630;-76
2022/08/25 08:44:55;;;;;;;6.38;1.92;;;29.40;49.90;;;;;;5054798;28;20021;-77
2022/08/25 08:47:43;;;;;;;4.38;1.80;;;29.30;51.60;;;;;;5054899;28;20059;-76
2022/08/25 08:50:38;;;;;;;8.27;2.88;;;29.20;50.10;;;;;;5054365;28;20073;-76
2022/08/25 08:53:41;;;;;;;7.50;2.47;;;29.20;50.30;;;;;;5054789;28;20025;-71
2022/08/25 08:56:22;;;;;;;7.93;2.43;;;29.30;50.30;;;;;;5054701;28;20036;-70
2022/08/25 08:58:56;;;;;;;6.60;2.28;;;29.40;52.00;;;;;;5036987;28;20520;-72
2022/08/25 09:01:32;;;;;;;6.90;2.80;;;29.40;50.10;;;;;;5054557;28;20013;-70
2022/08/25 09:04:10;;;;;;;7.78;2.05;;;29.40;51.80;;;;;;5054528;28;20430;-73
2022/08/25 09:06:48;;;;;;;7.43;2.47;;;29.30;49.80;;;;;;5053228;28;20028;-73
2022/08/25 09:09:28;;;;;;;9.55;2.70;;;29.30;50.00;;;;;;5036338;28;20053;-72
2022/08/25 09:12:08;;;;;;;7.65;2.53;;;29.30;49.80;;;;;;5054393;28;20511;-73
2022/08/25 09:14:54;;;;;;;8.45;2.83;;;29.30;49.80;;;;;;5054525;28;20108;-72
2022/08/25 09:17:35;;;;;;;5.13;2.13;;;29.30;51.10;;;;;;5023448;28;20069;-75
2022/08/25 09:20:21;;;;;;;6.25;2.30;;;29.30;49.60;;;;;;5054169;28;20032;-72
2022/08/25 09:23:13;;;;;;;6.75;2.30;;;29.40;49.60;;;;;;5054125;28;20060;-73
2022/08/25 09:25:52;;;;;;;5.82;2.25;;;29.40;49.50;;;;;;5053743;28;20092;-75
2022/08/25 09:28:30;;;;;;;7.18;2.10;;;29.50;51.70;;;;;;5054283;28;20029;-75
2022/08/25 09:31:01;;;;;;;20.30;10.90;;;29.50;50.80;;;;;;5053813;28;20581;-74
2022/08/25 09:33:31;;;;;;;6.90;2.90;;;29.60;51.10;;;;;;5053498;28;20025;-75
2022/08/25 09:35:57;;;;;;;5.55;2.42;;;29.60;50.90;;;;;;5053794;28;20514;-70
2022/08/25 09:38:28;;;;;;;7.88;2.33;;;29.70;49.20;;;;;;5053827;28;20082;-70
2022/08/25 09:40:56;;;;;;;5.68;2.08;;;29.70;50.60;;;;;;5053927;28;20017;-75
2022/08/25 09:43:35;;;;;;;5.30;2.42;;;29.70;50.60;;;;;;5036173;28;20025;-79
2022/08/25 09:46:12;;;;;;;7.13;2.33;;;29.70;49.20;;;;;;5054671;28;20029;-70
2022/08/25 09:48:46;;;;;;;6.53;2.50;;;29.70;49.20;;;;;;5053602;28;20478;-73
2022/08/25 09:51:16;;;;;;;7.75;2.53;;;29.80;49.50;;;;;;5053697;28;20456;-73
2022/08/25 09:53:59;;;;;;;10.10;2.67;;;29.80;50.70;;;;;;5053611;28;20025;-71
2022/08/25 09:56:27;;;;;;;9.82;3.10;;;29.80;49.40;;;;;;5053533;28;20078;-69
2022/08/25 09:58:56;;;;;;;10.25;3.25;;;29.80;51.00;;;;;;5053872;28;20025;-71
2022/08/25 10:02:08;;;;;;;17.70;4.60;;;29.90;51.10;;;;;;5053990;28;20488;-72
2022/08/25 10:04:37;;;;;;;9.15;3.00;;;30.00;49.80;;;;;;5053869;28;20128;-69
2022/08/25 10:07:19;;;;;;;9.20;2.97;;;30.00;51.10;;;;;;5053089;28;20064;-72
2022/08/25 10:09:53;;;;;;;11.98;4.00;;;30.10;50.80;;;;;;5033486;28;20482;-69
2022/08/25 10:12:41;;;;;;;9.38;2.97;;;30.10;50.90;;;;;;5015410;28;20035;-73
2022/08/25 10:15:29;;;;;;;7.47;2.35;;;30.20;50.60;;;;;;5015354;28;20029;-73
2022/08/25 10:18:14;;;;;;;11.23;2.97;;;30.30;50.60;;;;;;5033420;28;20061;-68
2022/08/25 10:20:40;;;;;;;9.23;3.03;;;30.40;49.00;;;;;;5033111;28;20017;-68
2022/08/25 10:23:11;;;;;;;9.38;3.45;;;30.50;50.00;;;;;;5033051;28;20410;-71
2022/08/25 10:25:50;;;;;;;7.40;2.40;;;30.50;50.30;;;;;;5033180;28;20061;-71
2022/08/25 10:28:32;;;;;;;5.53;2.20;;;30.60;50.10;;;;;;5032963;28;20034;-70
2022/08/25 10:31:22;;;;;;;9.43;2.70;;;30.60;48.20;;;;;;5032988;28;20065;-70
2022/08/25 10:34:07;;;;;;;6.28;2.50;;;30.70;48.20;;;;;;5032899;28;20429;-72
2022/08/25 10:37:08;;;;;;;7.85;2.60;;;30.70;48.10;;;;;;5032898;28;20033;-73
2022/08/25 10:39:39;;;;;;;4.90;2.35;;;30.70;48.40;;;;;;4989454;28;20029;-72
2022/08/25 10:42:37;;;;;;;20.27;3.03;;;30.70;49.70;;;;;;5034598;28;20033;-74
2022/08/25 10:48:18;;;;;;;42.08;5.32;;;30.60;49.80;;;;;;5033829;28;20102;-69
2022/08/25 10:50:50;;;;;;;43.17;5.28;;;30.60;49.10;;;;;;5034282;28;20072;-80
2022/08/25 10:53:26;;;;;;;7.43;3.10;;;30.60;49.30;;;;;;5037158;28;20044;-77
2022/08/25 10:55:56;;;;;;;10.93;2.85;;;30.60;48.80;;;;;;5037271;28;20383;-72
2022/08/25 10:58:25;;;;;;;13.32;3.60;;;30.70;50.30;;;;;;5033547;28;20033;-67
2022/08/25 11:01:15;;;;;;;30.58;5.18;;;30.70;49.60;;;;;;5032817;28;20067;-71
2022/08/25 11:03:45;;;;;;;12.30;2.95;;;30.80;48.60;;;;;;5032484;28;20018;-70
2022/08/25 11:06:19;;;;;;;14.77;3.70;;;30.80;49.50;;;;;;5033097;28;20048;-72
2022/08/25 11:11:54;;;;;;;8.32;2.65;;;31.00;49.10;;;;;;5053214;28;20137;-79
2022/08/25 11:14:24;;;;;;;8.80;2.65;;;31.20;49.10;;;;;;5052865;28;20120;-77
2022/08/25 11:16:57;;;;;;;5.90;2.10;;;31.30;48.70;;;;;;5053061;28;20039;-76
2022/08/25 11:19:32;;;;;;;8.30;2.88;;;31.40;48.40;;;;;;5052561;28;20377;-69
2022/08/25 11:22:01;;;;;;;9.95;2.78;;;31.60;47.30;;;;;;5052050;28;20116;-73
2022/08/25 11:24:38;;;;;;;13.88;11.48;;;31.70;47.50;;;;;;5052383;28;20369;-71
2022/08/25 11:27:07;;;;;;;7.55;2.75;;;31.80;47.40;;;;;;5052530;28;20037;-67
2022/08/25 11:29:36;;;;;;;6.07;2.42;;;31.80;48.80;;;;;;5052252;28;20021;-67
2022/08/25 11:32:02;;;;;;;17.63;10.60;;;31.80;48.70;;;;;;5056402;28;20465;-70
2022/08/25 11:34:34;;;;;;;10.20;2.85;;;31.80;48.50;;;;;;5056083;28;20171;-68
2022/08/25 11:37:18;;;;;;;7.05;3.30;;;31.80;48.70;;;;;;5056361;28;20029;-72
2022/08/25 11:40:21;;;;;;;12.48;5.07;;;31.70;48.60;;;;;;5056353;28;20017;-70
2022/08/25 11:42:54;;;;;;;7.53;3.87;;;31.60;47.60;;;;;;5056073;28;20033;-70
2022/08/25 11:45:45;;;;;;;6.53;3.25;;;31.60;48.70;;;;;;5056294;28;20310;-70
2022/08/25 11:48:22;;;;;;;7.60;3.22;;;31.60;49.00;;;;;;5056373;28;20017;-71
2022/08/25 11:51:02;;;;;;;9.05;4.25;;;31.70;49.00;;;;;;5056484;28;20033;-68
2022/08/25 11:53:42;;;;;;;5.38;2.35;;;31.70;48.00;;;;;;5039110;28;20071;-69
2022/08/25 11:56:31;;;;;;;8.80;4.13;;;31.70;47.60;;;;;;5056480;28;20028;-69
2022/08/25 11:58:57;;;;;;;6.13;2.80;;;31.90;48.60;;;;;;5056068;28;20040;-68
2022/08/25 12:01:38;;;;;;;7.18;3.63;;;31.90;48.60;;;;;;5056106;28;20029;-71
2022/08/25 12:04:16;;;;;;;10.52;4.28;;;31.90;48.80;;;;;;5056193;28;20033;-68
2022/08/25 12:07:04;;;;;;;6.80;2.40;;;32.00;48.20;;;;;;5056823;28;20103;-69
2022/08/25 12:09:52;;;;;;;6.03;3.00;;;32.00;48.30;;;;;;5047227;28;20444;-71
2022/08/25 12:12:30;;;;;;;5.50;2.50;;;32.00;48.80;;;;;;5055431;28;20037;-69
2022/08/25 12:15:12;;;;;;;7.25;3.50;;;31.90;48.80;;;;;;5056186;28;20031;-71
2022/08/25 12:17:38;;;;;;;7.10;2.63;;;31.80;49.10;;;;;;5056325;28;20029;-70
2022/08/25 12:20:05;;;;;;;7.05;2.42;;;31.90;49.30;;;;;;5056036;28;20041;-69
2022/08/25 12:22:31;;;;;;;6.45;3.03;;;31.90;49.30;;;;;;5056135;28;20470;-72
2022/08/25 12:25:10;;;;;;;10.23;3.40;;;32.00;49.30;;;;;;5055973;28;20059;-71
2022/08/25 12:27:47;;;;;;;4.70;2.42;;;32.10;47.80;;;;;;5055772;28;20029;-69
2022/08/25 12:30:38;;;;;;;6.95;2.80;;;32.20;47.80;;;;;;5056514;28;20025;-69
2022/08/25 12:33:23;;;;;;;4.63;2.30;;;32.20;47.50;;;;;;5056041;28;20095;-70
2022/08/25 12:35:58;;;;;;;6.30;2.35;;;32.10;47.80;;;;;;5055875;28;20408;-68
2022/08/25 12:38:47;;;;;;;5.20;2.83;;;32.20;48.80;;;;;;5055844;28;20048;-70
2022/08/25 12:41:17;;;;;;;4.10;1.90;;;32.20;47.70;;;;;;5055416;28;20112;-69
2022/08/25 12:44:14;;;;;;;5.65;2.00;;;32.30;48.50;;;;;;5055499;28;20021;-71
2022/08/25 12:46:43;;;;;;;6.97;3.10;;;32.20;48.40;;;;;;5055487;28;20029;-73
2022/08/25 12:49:38;;;;;;;5.18;2.40;;;32.30;48.30;;;;;;5055321;28;20500;-71
2022/08/25 12:52:05;;;;;;;6.47;2.30;;;32.40;47.30;;;;;;5052091;28;20041;-71
2022/08/25 12:54:50;;;;;;;3.83;2.08;;;32.50;48.00;;;;;;5055311;28;20025;-71
2022/08/25 12:57:56;;;;;;;5.28;2.00;;;32.50;47.00;;;;;;5055109;28;20021;-68
2022/08/25 13:00:31;;;;;;;4.35;2.08;;;32.60;46.70;;;;;;5055281;28;20033;-70
2022/08/25 13:03:48;;;;;;;3.80;2.08;;;32.70;46.60;;;;;;5055569;28;20028;-69
2022/08/25 13:06:36;;;;;;;4.35;2.50;;;32.80;46.20;;;;;;5021960;28;20060;-71
2022/08/25 13:09:49;;;;;;;4.05;1.80;;;32.80;47.00;;;;;;5037224;28;20053;-71
2022/08/25 13:12:29;;;;;;;6.55;1.80;;;32.90;46.50;;;;;;5055202;28;20037;-72
2022/08/25 13:14:56;;;;;;;4.57;1.77;;;32.90;46.50;;;;;;5055331;28;20093;-70
2022/08/25 13:17:34;;;;;;;4.00;2.00;;;32.90;46.30;;;;;;5037222;28;20033;-69
2022/08/25 13:20:23;;;;;;;3.88;1.90;;;33.00;46.10;;;;;;5054689;28;20032;-69
2022/08/25 13:22:55;;;;;;;4.53;1.83;;;33.00;46.10;;;;;;5055054;28;20029;-69
2022/08/25 13:25:23;;;;;;;9.55;1.90;;;33.00;45.60;;;;;;5056166;28;20028;-69